DBECF TNCS-TNCS
Flight info
| Callsign | DBECF |
|---|---|
| Flight time | N/A |
| Altitude | 5000 |
| Route | TNCS |
| Aircraft | PC6T/L-V/N |
Departure
| Time | 2026-04-28 16:51 |
|---|---|
| Airport | Juancho E. Yrausquin Airport (TNCS) |
Arrival
| Time | N/A |
|---|---|
| Airport | Juancho E. Yrausquin Airport (TNCS) |
| Time | Latitude | Longitude | Altitude | Speed | Heading |
|---|---|---|---|---|---|
| 2026-04-28 16:48 | 17.64457 | -63.22048 | 127 ft | 0 kts | 2° |
| 2026-04-28 16:48 | 17.64478 | -63.22041 | 128 ft | 9 kts | 24° |
| 2026-04-28 16:48 | 17.64538 | -63.22060 | 130 ft | 12 kts | 291° |
| 2026-04-28 16:49 | 17.64570 | -63.22136 | 137 ft | 11 kts | 293° |
| 2026-04-28 16:49 | 17.64591 | -63.22173 | 141 ft | 0 kts | 236° |
| 2026-04-28 16:49 | 17.64588 | -63.22174 | 141 ft | 2 kts | 141° |
| 2026-04-28 16:49 | 17.64583 | -63.22170 | 140 ft | 0 kts | 116° |
| 2026-04-28 16:50 | 17.64487 | -63.21927 | 138 ft | 69 kts | 111° |
| 2026-04-28 16:50 | 17.64452 | -63.21452 | 366 ft | 80 kts | 60° |
| 2026-04-28 16:51 | 17.64813 | -63.20921 | 524 ft | 94 kts | 53° |
| 2026-04-28 16:51 | 17.65266 | -63.20264 | 617 ft | 121 kts | 54° |
| 2026-04-28 16:51 | 17.65747 | -63.19592 | 1013 ft | 112 kts | 52° |
| 2026-04-28 16:51 | 17.66273 | -63.18945 | 1260 ft | 119 kts | 47° |
| 2026-04-28 16:52 | 17.66823 | -63.18320 | 1614 ft | 115 kts | 45° |
| 2026-04-28 16:52 | 17.67409 | -63.17727 | 1886 ft | 119 kts | 44° |
| 2026-04-28 16:52 | 17.68009 | -63.17136 | 2220 ft | 118 kts | 41° |
| 2026-04-28 16:52 | 17.68615 | -63.16560 | 2514 ft | 120 kts | 42° |
| 2026-04-28 16:53 | 17.69214 | -63.15942 | 2781 ft | 123 kts | 46° |
| 2026-04-28 16:53 | 17.69782 | -63.15218 | 2927 ft | 130 kts | 53° |
| 2026-04-28 16:53 | 17.70348 | -63.14422 | 2978 ft | 142 kts | 53° |
| 2026-04-28 16:53 | 17.70937 | -63.13575 | 2976 ft | 146 kts | 54° |
| 2026-04-28 16:54 | 17.71530 | -63.12711 | 2981 ft | 145 kts | 54° |
| 2026-04-28 16:54 | 17.72133 | -63.11848 | 2996 ft | 147 kts | 53° |
| 2026-04-28 16:54 | 17.72771 | -63.11023 | 3022 ft | 146 kts | 50° |
| 2026-04-28 16:54 | 17.73213 | -63.10472 | 3033 ft | 147 kts | 50° |
| 2026-04-28 16:55 | 17.74083 | -63.09385 | 3065 ft | 146 kts | 51° |
| 2026-04-28 16:55 | 17.74718 | -63.08540 | 3086 ft | 147 kts | 52° |
| 2026-04-28 16:55 | 17.75345 | -63.07710 | 3112 ft | 146 kts | 51° |
| 2026-04-28 16:55 | 17.76002 | -63.06899 | 3128 ft | 147 kts | 48° |
| 2026-04-28 16:56 | 17.76723 | -63.06131 | 3156 ft | 145 kts | 44° |
| 2026-04-28 16:56 | 17.77403 | -63.05362 | 3108 ft | 145 kts | 46° |
| 2026-04-28 16:56 | 17.78095 | -63.04564 | 3055 ft | 148 kts | 49° |
| 2026-04-28 16:56 | 17.78753 | -63.03728 | 3025 ft | 150 kts | 52° |
| 2026-04-28 16:57 | 17.79394 | -63.02850 | 2897 ft | 153 kts | 52° |
| 2026-04-28 16:57 | 17.80050 | -63.01982 | 2897 ft | 149 kts | 50° |
| 2026-04-28 16:57 | 17.80739 | -63.01169 | 2839 ft | 151 kts | 47° |
| 2026-04-28 16:57 | 17.81457 | -63.00359 | 2769 ft | 151 kts | 48° |
| 2026-04-28 16:58 | 17.82151 | -62.99540 | 2711 ft | 151 kts | 48° |
| 2026-04-28 16:58 | 17.82858 | -62.98742 | 2670 ft | 150 kts | 45° |
| 2026-04-28 16:58 | 17.83616 | -62.97978 | 2612 ft | 149 kts | 44° |
| 2026-04-28 16:58 | 17.84320 | -62.97165 | 2488 ft | 152 kts | 51° |
| 2026-04-28 16:59 | 17.84960 | -62.96299 | 2452 ft | 149 kts | 53° |
| 2026-04-28 16:59 | 17.85584 | -62.95439 | 2411 ft | 148 kts | 52° |
| 2026-04-28 16:59 | 17.86178 | -62.94637 | 2039 ft | 142 kts | 52° |
| 2026-04-28 16:59 | 17.86818 | -62.93807 | 1563 ft | 150 kts | 51° |
| 2026-04-28 17:00 | 17.87492 | -62.92941 | 1426 ft | 148 kts | 51° |
| 2026-04-28 17:00 | 17.88038 | -62.92194 | 1311 ft | 116 kts | 55° |
| 2026-04-28 17:00 | 17.88437 | -62.91493 | 1449 ft | 100 kts | 66° |
| 2026-04-28 17:00 | 17.88675 | -62.90828 | 1608 ft | 99 kts | 70° |
| 2026-04-28 17:01 | 17.88977 | -62.90143 | 1617 ft | 103 kts | 64° |
| 2026-04-28 17:01 | 17.89293 | -62.89507 | 1685 ft | 99 kts | 60° |
| 2026-04-28 17:01 | 17.89640 | -62.88942 | 1518 ft | 92 kts | 54° |
| 2026-04-28 17:01 | 17.90015 | -62.88400 | 1360 ft | 98 kts | 54° |
| 2026-04-28 17:02 | 17.90294 | -62.87805 | 1308 ft | 80 kts | 76° |
| 2026-04-28 17:02 | 17.90342 | -62.87435 | 1153 ft | 73 kts | 87° |
| 2026-04-28 17:02 | 17.90373 | -62.86692 | 857 ft | 77 kts | 88° |
| 2026-04-28 17:02 | 17.90405 | -62.86061 | 635 ft | 80 kts | 88° |
| 2026-04-28 17:03 | 17.90425 | -62.84877 | 221 ft | 81 kts | 89° |
| 2026-04-28 17:03 | 17.90435 | -62.84329 | 31 ft | 62 kts | 93° |
| 2026-04-28 17:03 | 17.90445 | -62.84085 | 12 ft | 12 kts | 104° |
| 2026-04-28 17:04 | 17.90447 | -62.84080 | 11 ft | 8 kts | 266° |
| 2026-04-28 17:04 | 17.90442 | -62.84164 | 18 ft | 13 kts | 266° |
| 2026-04-28 17:05 | 17.90438 | -62.84388 | 33 ft | 16 kts | 267° |
| 2026-04-28 17:05 | 17.90435 | -62.84512 | 39 ft | 17 kts | 269° |
| 2026-04-28 17:05 | 17.90432 | -62.84627 | 48 ft | 11 kts | 269° |
| 2026-04-28 17:06 | 17.90431 | -62.84617 | 47 ft | 30 kts | 86° |
| 2026-04-28 17:06 | 17.90443 | -62.84137 | 194 ft | 77 kts | 88° |
| 2026-04-28 17:06 | 17.91150 | -62.83643 | 758 ft | 83 kts | 317° |
| 2026-04-28 17:07 | 17.91563 | -62.84104 | 914 ft | 99 kts | 303° |
| 2026-04-28 17:07 | 17.91641 | -62.84887 | 1030 ft | 120 kts | 256° |
| 2026-04-28 17:07 | 17.91405 | -62.85744 | 1264 ft | 110 kts | 251° |
| 2026-04-28 17:07 | 17.91121 | -62.86329 | 1187 ft | 80 kts | 220° |
| 2026-04-28 17:08 | 17.90626 | -62.86296 | 931 ft | 74 kts | 148° |
| 2026-04-28 17:08 | 17.90420 | -62.85785 | 575 ft | 77 kts | 101° |
| 2026-04-28 17:08 | 17.90410 | -62.85219 | 395 ft | 82 kts | 90° |
| 2026-04-28 17:08 | 17.90434 | -62.84649 | 105 ft | 78 kts | 90° |
| 2026-04-28 17:09 | 17.90436 | -62.84145 | 20 ft | 66 kts | 89° |
| 2026-04-28 17:09 | 17.90506 | -62.83636 | 259 ft | 81 kts | 69° |
| 2026-04-28 17:09 | 17.91040 | -62.83318 | 462 ft | 105 kts | 353° |
| 2026-04-28 17:09 | 17.91600 | -62.83796 | 702 ft | 119 kts | 297° |
| 2026-04-28 17:10 | 17.91852 | -62.84645 | 962 ft | 124 kts | 279° |
| 2026-04-28 17:10 | 17.91962 | -62.85544 | 1302 ft | 116 kts | 275° |
| 2026-04-28 17:10 | 17.91886 | -62.86236 | 1122 ft | 94 kts | 240° |
| 2026-04-28 17:10 | 17.91364 | -62.86381 | 819 ft | 82 kts | 164° |
| 2026-04-28 17:11 | 17.90854 | -62.86156 | 535 ft | 83 kts | 154° |
| 2026-04-28 17:11 | 17.90488 | -62.85674 | 387 ft | 76 kts | 112° |
| 2026-04-28 17:11 | 17.90413 | -62.85137 | 266 ft | 78 kts | 92° |
| 2026-04-28 17:11 | 17.90435 | -62.84582 | 71 ft | 76 kts | 90° |
| 2026-04-28 17:12 | 17.90441 | -62.84159 | 18 ft | 21 kts | 89° |
| 2026-04-28 17:12 | 17.90444 | -62.84061 | 10 ft | 3 kts | 11° |
| 2026-04-28 17:12 | 17.90448 | -62.84084 | 12 ft | 9 kts | 265° |
| 2026-04-28 17:12 | 17.90440 | -62.84296 | 28 ft | 34 kts | 268° |
| 2026-04-28 17:13 | 17.90419 | -62.84393 | 34 ft | 6 kts | 171° |
| 2026-04-28 17:13 | 17.90382 | -62.84417 | 37 ft | 8 kts | 245° |
| 2026-04-28 17:13 | 17.90369 | -62.84447 | 39 ft | 0 kts | 244° |